Time;durP1;ratioP1;P1;durP2;ratioP2;P2;SDS_P1;SDS_P2;PMS_P1;PMS_P2;Temp;Humidity;BMP_temperature;BMP_pressure;BME280_temperature;BME280_humidity;BME280_pressure;Samples;Min_cycle;Max_cycle;Signal;HPM_P1;HPM_P2
2023/03/27 00:02:43;;;;;;;62.70;41.30;;;;;;;4.69;89.72;97963.98;436489;1262;138402;-73
2023/03/27 00:12:49;;;;;;;67.20;43.10;;;;;;;4.72;90.28;97967.48;436128;1263;138378;-73
2023/03/27 00:22:55;;;;;;;67.40;46.60;;;;;;;4.69;90.32;97968.19;438527;1256;138279;-73
2023/03/27 00:33:01;;;;;;;66.30;45.60;;;;;;;4.62;90.22;97961.19;438068;1254;138880;-73
2023/03/27 00:43:22;;;;;;;71.30;43.60;;;;;;;4.56;90.31;97948.05;438030;1256;138200;-73
2023/03/27 00:53:30;;;;;;;64.00;44.00;;;;;;;4.50;90.34;97946.51;438362;1253;138628;-74
2023/03/27 01:03:36;;;;;;;65.30;41.90;;;;;;;4.42;90.91;97948.09;438449;1253;138806;-73
2023/03/27 01:14:05;;;;;;;66.90;45.20;;;;;;;4.35;90.84;97953.19;438153;1254;140007;-74
2023/03/27 01:24:52;;;;;;;69.10;44.60;;;;;;;4.34;91.11;97958.10;437933;1254;140693;-72
2023/03/27 01:35:28;;;;;;;67.20;45.60;;;;;;;4.35;91.64;97956.46;437890;1256;139163;-73
2023/03/27 01:45:39;;;;;;;58.30;40.40;;;;;;;4.31;91.87;97953.84;438395;1254;139396;-73
2023/03/27 01:55:50;;;;;;;60.40;42.60;;;;;;;4.23;91.99;97943.38;438211;1254;138673;-73
2023/03/27 02:06:00;;;;;;;54.40;36.70;;;;;;;4.22;92.10;97937.40;438352;1254;138576;-72
2023/03/27 02:16:09;;;;;;;47.40;33.40;;;;;;;4.32;92.23;97940.90;438312;1253;139316;-72
2023/03/27 02:26:15;;;;;;;25.30;18.00;;;;;;;4.39;91.86;97932.39;438505;1256;140203;-72
2023/03/27 02:36:28;;;;;;;17.80;13.10;;;;;;;4.34;90.75;97922.45;438049;1256;138882;-73
2023/03/27 02:46:39;;;;;;;14.60;11.20;;;;;;;4.18;90.28;97933.85;438354;1254;139642;-71
2023/03/27 02:56:50;;;;;;;15.70;11.10;;;;;;;4.01;89.96;97939.63;438768;1254;138443;-72
2023/03/27 03:06:57;;;;;;;14.00;10.30;;;;;;;3.83;90.15;97933.98;438242;1256;138399;-73
2023/03/27 03:17:02;;;;;;;;;;;;;;;3.72;90.03;97936.20;438443;1254;139075;-72
2023/03/27 03:27:08;;;;;;;18.40;11.40;;;;;;;3.46;90.05;97955.13;438267;1253;125562;-73
2023/03/27 03:37:14;;;;;;;12.20;10.30;;;;;;;3.06;90.81;97967.15;438224;1254;139669;-72
2023/03/27 03:47:20;;;;;;;15.80;9.70;;;;;;;2.67;91.41;97980.80;438322;1254;138653;-73
2023/03/27 03:57:26;;;;;;;12.20;8.90;;;;;;;2.44;92.13;97995.23;437996;1254;138986;-71
2023/03/27 04:07:34;;;;;;;11.20;7.40;;;;;;;2.24;92.04;97998.21;438103;1256;139308;-72
2023/03/27 04:17:41;;;;;;;9.80;7.60;;;;;;;2.05;92.18;98004.44;438094;1254;138345;-72
2023/03/27 04:27:45;;;;;;;;;;;;;;;1.90;92.67;98000.95;438520;1254;139078;-73
2023/03/27 04:37:51;;;;;;;15.70;8.20;;;;;;;1.76;92.67;98022.70;438165;1254;126125;-73
2023/03/27 04:47:57;;;;;;;17.60;11.80;;;;;;;1.77;93.13;98041.34;438625;1256;139590;-72
2023/03/27 04:58:03;;;;;;;11.50;7.90;;;;;;;2.00;93.12;98053.73;438596;1253;138263;-72
2023/03/27 05:08:08;;;;;;;15.70;9.40;;;;;;;2.23;92.48;98056.33;438511;1254;139409;-72
2023/03/27 05:18:14;;;;;;;10.90;7.00;;;;;;;2.32;91.72;98048.23;438633;1253;139724;-72
2023/03/27 05:28:20;;;;;;;8.50;5.10;;;;;;;2.52;90.63;98045.92;439267;1256;138272;-73
2023/03/27 05:38:26;;;;;;;11.20;5.50;;;;;;;2.66;89.41;98047.23;438393;1257;138365;-73
2023/03/27 05:48:32;;;;;;;14.60;7.00;;;;;;;2.97;88.48;98071.27;438305;1254;138750;-73
2023/03/27 05:58:38;;;;;;;11.00;4.70;;;;;;;3.21;87.38;98089.76;438509;1254;138748;-72
2023/03/27 06:08:44;;;;;;;10.00;4.80;;;;;;;3.31;86.33;98100.81;439066;1256;138807;-72
2023/03/27 06:18:50;;;;;;;11.20;4.70;;;;;;;7.59;85.24;98108.23;438930;1254;138645;-74
2023/03/27 06:28:57;;;;;;;7.20;3.40;;;;;;;8.78;77.14;98119.58;438324;1256;140379;-73
2023/03/27 06:39:03;;;;;;;11.40;6.00;;;;;;;7.62;75.59;98133.50;438563;1254;137941;-73
2023/03/27 06:49:10;;;;;;;8.00;4.00;;;;;;;6.66;74.84;98151.09;438560;1253;138981;-74
2023/03/27 06:59:16;;;;;;;9.60;5.60;;;;;;;5.51;75.03;98167.69;438548;1254;138223;-73
2023/03/27 07:09:22;;;;;;;7.80;5.50;;;;;;;4.51;76.82;98190.30;438482;1254;138356;-72
2023/03/27 07:19:28;;;;;;;5.10;3.20;;;;;;;3.82;77.64;98207.73;438238;1254;138924;-72
2023/03/27 07:29:33;;;;;;;7.70;4.30;;;;;;;3.27;77.95;98218.09;438255;1254;138916;-71
2023/03/27 07:39:39;;;;;;;6.40;3.60;;;;;;;2.99;78.74;98231.55;438299;1256;139694;-73
2023/03/27 07:49:45;;;;;;;3.80;2.90;;;;;;;2.93;79.22;98257.95;438639;1254;138107;-71
2023/03/27 07:59:51;;;;;;;2.50;1.90;;;;;;;2.92;78.89;98282.08;438270;1256;138728;-71
2023/03/27 08:09:57;;;;;;;5.80;3.50;;;;;;;2.81;78.50;98295.59;438386;1256;138103;-72
2023/03/27 08:20:07;;;;;;;2.00;1.90;;;;;;;2.97;78.36;98313.41;438406;1257;138433;-72
2023/03/27 08:30:15;;;;;;;4.80;2.60;;;;;;;3.46;77.55;98326.87;439066;1254;138974;-72
2023/03/27 08:40:25;;;;;;;5.20;4.70;;;;;;;3.89;75.43;98344.92;438829;1256;139782;-72
2023/03/27 08:50:38;;;;;;;4.10;1.50;;;;;;;3.43;73.84;98348.83;438579;1254;138565;-71
2023/03/27 09:00:46;;;;;;;2.00;1.80;;;;;;;3.01;73.02;98357.83;439152;1257;138459;-70
2023/03/27 09:10:59;;;;;;;2.30;1.70;;;;;;;3.59;72.17;98363.54;439871;1254;138765;-72
2023/03/27 09:21:10;;;;;;;3.30;2.40;;;;;;;4.40;70.41;98364.05;439086;1254;138371;-71
2023/03/27 09:31:25;;;;;;;2.80;2.30;;;;;;;4.50;68.78;98373.73;439084;1257;138371;-72
2023/03/27 09:41:37;;;;;;;4.10;1.70;;;;;;;4.15;68.73;98380.04;439087;1253;138177;-73
2023/03/27 09:51:46;;;;;;;2.90;2.50;;;;;;;4.26;68.35;98387.20;438643;1257;138316;-73
2023/03/27 10:01:55;;;;;;;4.80;2.80;;;;;;;4.24;68.03;98393.57;438479;1256;138022;-72
2023/03/27 10:12:16;;;;;;;4.10;2.60;;;;;;;3.81;69.15;98403.23;438418;1256;138470;-73
2023/03/27 10:22:28;;;;;;;3.20;2.70;;;;;;;3.75;69.57;98414.07;438704;1257;137570;-72
2023/03/27 10:32:45;;;;;;;5.30;3.70;;;;;;;3.50;69.82;98421.85;438461;1255;137456;-71
2023/03/27 10:42:54;;;;;;;3.60;2.20;;;;;;;3.94;70.37;98421.67;438638;1256;138801;-72
2023/03/27 10:53:12;;;;;;;4.10;2.20;;;;;;;4.17;69.40;98427.77;438227;1254;139667;-72
2023/03/27 11:03:26;;;;;;;3.10;2.70;;;;;;;3.88;69.22;98439.38;438346;1257;138068;-72
2023/03/27 11:13:34;;;;;;;1.70;1.60;;;;;;;4.04;69.79;98433.13;438331;1257;138067;-72
2023/03/27 11:23:44;;;;;;;3.70;2.20;;;;;;;3.95;68.68;98442.23;438522;1254;138890;-72
2023/03/27 11:33:55;;;;;;;6.40;4.50;;;;;;;3.57;69.44;98452.80;438749;1254;138151;-72
2023/03/27 11:44:00;;;;;;;4.00;3.10;;;;;;;3.84;69.55;98451.52;438398;1254;138107;-72
2023/03/27 11:54:22;;;;;;;2.60;2.30;;;;;;;4.53;68.64;98455.34;438645;1257;138581;-72
2023/03/27 12:04:41;;;;;;;3.90;1.60;;;;;;;4.67;65.91;98454.04;438862;1254;137941;-72
2023/03/27 12:14:59;;;;;;;8.50;2.00;;;;;;;4.16;64.33;98463.63;438287;1254;137341;-72
2023/03/27 12:25:33;;;;;;;2.40;1.60;;;;;;;3.62;63.82;98483.17;438193;1254;138321;-72
2023/03/27 12:35:45;;;;;;;1.20;1.20;;;;;;;3.90;63.69;98489.25;438267;1254;138214;-73
2023/03/27 12:46:10;;;;;;;1.60;1.20;;;;;;;4.11;61.95;98504.45;438273;1254;137967;-72
2023/03/27 12:56:32;;;;;;;2.70;1.30;;;;;;;3.82;61.44;98533.17;438167;1254;138065;-71
2023/03/27 13:06:49;;;;;;;2.10;1.20;;;;;;;3.93;61.41;98547.16;438614;1257;138506;-71
2023/03/27 13:17:06;;;;;;;1.90;1.10;;;;;;;4.06;61.12;98560.64;438841;1257;137794;-72
2023/03/27 13:27:30;;;;;;;2.50;1.20;;;;;;;4.09;60.33;98568.13;439056;1254;138970;-74
2023/03/27 13:37:59;;;;;;;3.30;1.00;;;;;;;4.25;59.64;98570.02;440230;1254;137331;-73
2023/03/27 13:48:36;;;;;;;0.70;0.70;;;;;;;4.22;57.40;98578.49;439063;1254;137854;-73
2023/03/27 13:59:09;;;;;;;3.60;1.30;;;;;;;4.01;55.96;98609.58;441522;1257;137800;-74
2023/03/27 14:09:35;;;;;;;3.40;1.40;;;;;;;3.60;56.95;98651.80;439612;1256;137492;-74
2023/03/27 14:20:14;;;;;;;1.10;1.00;;;;;;;3.38;56.76;98671.07;438977;1254;138171;-73
2023/03/27 14:30:25;;;;;;;1.50;1.40;;;;;;;3.47;56.38;98682.42;438972;1254;138898;-74
2023/03/27 14:40:34;;;;;;;3.00;1.70;;;;;;;3.60;56.30;98699.25;439576;1254;137761;-72
2023/03/27 14:50:42;;;;;;;1.80;0.70;;;;;;;3.57;55.94;98710.45;439230;1254;137958;-72
2023/03/27 15:00:56;;;;;;;2.00;0.90;;;;;;;3.23;54.54;98715.04;438957;1256;137453;-72
2023/03/27 15:11:09;;;;;;;2.20;1.10;;;;;;;3.04;54.55;98716.10;438984;1257;139029;-73
2023/03/27 15:21:20;;;;;;;3.80;1.40;;;;;;;2.81;55.71;98725.48;438745;1256;137672;-72
2023/03/27 15:31:28;;;;;;;1.90;1.20;;;;;;;2.67;56.16;98726.94;438549;1253;139009;-71
2023/03/27 15:41:43;;;;;;;3.00;1.70;;;;;;;3.01;56.50;98740.45;439009;1254;138462;-73
2023/03/27 15:51:49;;;;;;;2.70;1.20;;;;;;;3.17;55.80;98748.55;438985;1257;138748;-72
2023/03/27 16:02:02;;;;;;;1.50;1.00;;;;;;;3.16;54.54;98777.33;438608;1256;137868;-71
2023/03/27 16:12:15;;;;;;;1.00;0.90;;;;;;;3.07;53.91;98800.38;439691;1256;138503;-72
2023/03/27 16:22:28;;;;;;;0.80;0.80;;;;;;;2.81;54.64;98822.27;442459;1254;139643;-71
2023/03/27 16:32:35;;;;;;;2.50;1.00;;;;;;;2.47;54.13;98836.52;439445;1253;138398;-72
2023/03/27 16:42:41;;;;;;;3.10;1.20;;;;;;;2.24;54.30;98856.30;444815;1253;138321;-72
2023/03/27 16:52:47;;;;;;;2.60;1.70;;;;;;;2.09;54.63;98880.89;438705;1254;138668;-72
2023/03/27 17:02:53;;;;;;;1.90;1.40;;;;;;;1.80;56.02;98916.06;438652;1254;137476;-71
2023/03/27 17:12:58;;;;;;;2.50;1.30;;;;;;;1.28;58.17;98934.20;438870;1252;137601;-72
2023/03/27 17:23:04;;;;;;;3.80;2.00;;;;;;;1.01;59.40;98948.06;438704;1253;138562;-71
2023/03/27 17:33:10;;;;;;;2.70;2.30;;;;;;;0.64;60.76;98962.08;438718;1253;137408;-72
2023/03/27 17:43:17;;;;;;;5.20;1.90;;;;;;;0.28;62.39;98979.95;437978;1253;137478;-72
2023/03/27 17:53:22;;;;;;;3.70;2.20;;;;;;;-0.03;63.48;98990.00;438110;1253;138840;-71
2023/03/27 18:03:28;;;;;;;4.90;3.50;;;;;;;-0.24;64.51;99002.34;438605;1253;138347;-71
2023/03/27 18:13:34;;;;;;;4.00;3.20;;;;;;;-0.43;65.41;99012.84;438198;1253;139039;-71
2023/03/27 18:23:40;;;;;;;4.70;2.30;;;;;;;-0.60;65.80;99020.88;438375;1256;139632;-71
2023/03/27 18:33:51;;;;;;;4.50;2.80;;;;;;;-0.78;65.94;99029.75;438211;1253;138963;-72
2023/03/27 18:43:57;;;;;;;7.20;4.10;;;;;;;-0.94;65.89;99040.50;438571;1251;138399;-73
2023/03/27 18:54:03;;;;;;;6.20;3.30;;;;;;;-1.06;65.97;99054.02;438938;1251;140028;-71
2023/03/27 19:04:11;;;;;;;6.30;3.30;;;;;;;-1.19;66.05;99059.15;439407;1253;139595;-71
2023/03/27 19:14:19;;;;;;;4.00;3.60;;;;;;;-1.34;66.24;99060.70;439238;1250;139206;-66
2023/03/27 19:24:26;;;;;;;7.30;4.00;;;;;;;-1.54;66.70;99071.80;437617;1253;139793;-74
2023/03/27 19:34:33;;;;;;;4.00;3.00;;;;;;;-1.69;66.88;99069.75;439082;1253;139154;-75
2023/03/27 19:44:47;;;;;;;6.50;4.20;;;;;;;-1.86;66.99;99074.56;439940;1250;138462;-74
2023/03/27 19:54:54;;;;;;;6.30;4.30;;;;;;;-1.99;67.42;99078.27;439552;1250;138898;-74
2023/03/27 20:05:00;;;;;;;10.10;5.20;;;;;;;-2.10;67.22;99085.87;439620;1251;139605;-75
2023/03/27 20:15:07;;;;;;;8.50;4.40;;;;;;;-2.24;67.47;99098.83;439299;1251;139220;-73
2023/03/27 20:25:20;;;;;;;;;;;;;;;-2.38;67.26;99100.81;439338;1250;138856;-74
2023/03/27 20:35:26;;;;;;;8.60;4.50;;;;;;;-2.42;67.25;99095.41;439447;1253;125957;-73
2023/03/27 20:45:32;;;;;;;6.40;4.30;;;;;;;-2.53;66.98;99095.28;439821;1250;138907;-74
2023/03/27 20:55:37;;;;;;;;;;;;;;;-2.71;67.22;99095.58;439442;1250;139117;-75
2023/03/27 21:06:05;;;;;;;8.70;4.60;;;;;;;-2.77;66.97;99102.02;439434;1250;124869;-75
2023/03/27 21:16:11;;;;;;;8.60;5.10;;;;;;;-2.94;67.44;99106.26;439816;1253;139137;-76
2023/03/27 21:26:18;;;;;;;7.10;5.00;;;;;;;-3.18;67.99;99097.56;439380;1250;139100;-75
2023/03/27 21:36:24;;;;;;;7.90;5.80;;;;;;;-3.52;68.68;99099.09;439568;1251;139045;-75
2023/03/27 21:46:34;;;;;;;8.60;5.90;;;;;;;-3.80;69.42;99100.85;439160;1250;139154;-74
2023/03/27 21:56:40;;;;;;;12.60;8.10;;;;;;;-4.09;70.34;99100.18;438874;1251;138653;-74
2023/03/27 22:06:46;;;;;;;13.90;8.10;;;;;;;-4.30;71.32;99094.27;438751;1251;139637;-75
2023/03/27 22:16:52;;;;;;;11.70;7.90;;;;;;;-4.43;71.93;99087.92;438618;1250;142801;-76
2023/03/27 22:26:57;;;;;;;11.50;7.90;;;;;;;-4.57;72.50;99083.79;438657;1250;139072;-76
2023/03/27 22:37:03;;;;;;;13.40;8.00;;;;;;;-4.72;73.32;99086.34;438954;1250;139152;-74
2023/03/27 22:47:10;;;;;;;12.00;8.10;;;;;;;-4.89;73.90;99088.71;438508;1251;152017;-76
2023/03/27 22:57:16;;;;;;;11.60;7.20;;;;;;;-5.03;74.31;99088.85;438826;1253;138596;-75
2023/03/27 23:07:22;;;;;;;16.50;11.80;;;;;;;-5.14;74.56;99074.09;439143;1250;139754;-74
2023/03/27 23:17:28;;;;;;;41.50;24.30;;;;;;;-5.28;74.91;99072.65;439156;1251;139845;-75
2023/03/27 23:27:34;;;;;;;38.10;21.50;;;;;;;-5.39;75.28;99078.89;438847;1253;139328;-76
2023/03/27 23:37:41;;;;;;;39.30;21.00;;;;;;;-5.50;76.13;99079.81;438656;1253;139467;-75
2023/03/27 23:47:46;;;;;;;39.20;21.60;;;;;;;-5.58;76.67;99083.62;438990;1251;139054;-76
2023/03/27 23:57:52;;;;;;;47.50;27.00;;;;;;;-5.72;76.81;99089.50;438979;1251;139097;-76
